Philadelphia, Pennsylvania
Traffic Map
Current Weather Conditions
Philadelphia, Pennsylvania
Overcast
Overcast
58°
Feels Like: 58°
Wind Chill: 58° Ceiling: 3200
Heat Index: 58° Visibility: 10mi
Dew Point: 44° Wind: 12mph
Humidity: 60% Direction: 40° (NE)
Pressure: 29.63in Gusts: 0mph
Raw Report DataKPHL 052254Z 04010KT 10SM OVC032 14/07 A2963 RMK AO2 SLP032 T01440067
Traffic Incident Summary
Active as of:
Severity:
Category:
InformationThere was an issue retrieving the traffic information for this location. Please try a different location or try again shortly.
Advertisements
Track Severe Weather on mobile